createdAt,value
2019-03-26T00:00:23.249Z,2.30
2019-03-26T00:03:47.138Z,2.30
2019-03-26T00:07:11.065Z,2.30
2019-03-26T00:10:34.784Z,2.20
2019-03-26T00:13:58.721Z,2.20
2019-03-26T00:17:22.491Z,2.20
2019-03-26T00:20:47.202Z,2.20
2019-03-26T00:24:11.039Z,2.20
2019-03-26T00:27:35.018Z,2.10
2019-03-26T00:30:58.887Z,2.00
2019-03-26T00:34:22.688Z,2.00
2019-03-26T00:37:46.685Z,2.00
2019-03-26T00:41:10.416Z,2.00
2019-03-26T00:44:34.255Z,2.10
2019-03-26T00:47:58.101Z,2.20
2019-03-26T00:51:21.985Z,2.20
2019-03-26T00:54:45.757Z,2.20
2019-03-26T00:58:09.792Z,2.30
2019-03-26T01:01:33.726Z,2.40
2019-03-26T01:04:57.580Z,2.40
2019-03-26T01:08:21.420Z,2.40
2019-03-26T01:11:45.412Z,2.40
2019-03-26T01:15:09.386Z,2.50
2019-03-26T01:18:33.236Z,2.50
2019-03-26T01:21:57.154Z,2.50
2019-03-26T01:25:21.016Z,2.50
2019-03-26T01:28:44.908Z,2.50
2019-03-26T01:32:08.695Z,2.60
2019-03-26T01:35:32.657Z,2.60
2019-03-26T01:38:57.150Z,2.60
2019-03-26T01:42:20.872Z,2.60
2019-03-26T01:45:44.673Z,2.60
2019-03-26T01:49:08.649Z,2.60
2019-03-26T01:52:32.428Z,2.70
2019-03-26T01:55:56.164Z,2.60
2019-03-26T01:59:20.045Z,2.70
2019-03-26T02:02:43.820Z,2.70
2019-03-26T02:06:07.766Z,2.60
2019-03-26T02:09:31.544Z,2.50
2019-03-26T02:12:55.324Z,2.40
2019-03-26T02:16:19.061Z,2.40
2019-03-26T02:19:42.765Z,2.30
2019-03-26T02:23:06.651Z,2.40
2019-03-26T02:26:30.885Z,2.40
2019-03-26T02:29:54.736Z,2.40
2019-03-26T02:33:18.641Z,2.40
2019-03-26T02:36:42.495Z,2.40
2019-03-26T02:40:06.834Z,2.40
2019-03-26T02:43:30.588Z,2.40
2019-03-26T02:46:54.544Z,2.20
2019-03-26T02:50:18.430Z,2.00
2019-03-26T02:53:42.318Z,1.90
2019-03-26T02:57:06.133Z,1.70
2019-03-26T03:00:29.865Z,1.60
2019-03-26T03:03:53.776Z,1.60
2019-03-26T03:07:19.559Z,1.60
2019-03-26T03:10:43.395Z,1.60
2019-03-26T03:14:07.178Z,1.60
2019-03-26T03:17:31.043Z,1.70
2019-03-26T03:20:54.888Z,1.60
2019-03-26T03:24:18.736Z,1.50
2019-03-26T03:27:42.643Z,1.50
2019-03-26T03:31:06.902Z,1.50
2019-03-26T03:34:30.693Z,1.50
2019-03-26T03:37:54.727Z,1.50
2019-03-26T03:41:18.396Z,1.50
2019-03-26T03:44:42.247Z,1.60
2019-03-26T03:48:06.016Z,1.60
2019-03-26T03:51:31.471Z,1.70
2019-03-26T03:54:55.369Z,1.90
2019-03-26T03:58:21.980Z,2.00
2019-03-26T04:01:45.885Z,2.10
2019-03-26T04:05:09.695Z,2.10
2019-03-26T04:08:33.506Z,2.20
2019-03-26T04:11:57.331Z,2.30
2019-03-26T04:15:21.288Z,2.30
2019-03-26T04:18:44.985Z,2.20
2019-03-26T04:22:08.830Z,2.10
2019-03-26T04:25:32.745Z,2.10
2019-03-26T04:28:56.534Z,2.00
2019-03-26T04:32:20.173Z,1.90
2019-03-26T04:35:44.037Z,2.00
2019-03-26T04:39:08.488Z,2.00
2019-03-26T04:42:32.319Z,2.10
2019-03-26T04:45:56.236Z,2.10
2019-03-26T04:49:19.939Z,2.10
2019-03-26T04:52:43.695Z,2.20
2019-03-26T04:56:07.645Z,2.10
2019-03-26T04:59:31.662Z,2.10
2019-03-26T05:02:55.599Z,2.10
2019-03-26T05:06:19.369Z,2.10
2019-03-26T05:09:43.094Z,2.10
2019-03-26T05:13:07.389Z,2.10
2019-03-26T05:16:31.120Z,2.10
2019-03-26T05:19:54.833Z,2.30
2019-03-26T05:23:19.053Z,2.30
2019-03-26T05:26:42.801Z,2.40
2019-03-26T05:30:07.668Z,2.40
2019-03-26T05:33:31.427Z,2.80
2019-03-26T05:36:55.371Z,3.00
2019-03-26T05:40:19.116Z,4.30
2019-03-26T05:43:43.091Z,4.40
2019-03-26T05:47:06.933Z,5.90
2019-03-26T05:50:30.790Z,6.30
2019-03-26T05:53:55.062Z,8.00
2019-03-26T05:57:18.961Z,10.50
2019-03-26T06:00:42.762Z,9.10
2019-03-26T06:04:06.638Z,7.70
2019-03-26T06:07:31.360Z,6.90
2019-03-26T06:10:55.815Z,5.70
2019-03-26T06:14:19.790Z,5.40
2019-03-26T06:17:43.527Z,6.10
2019-03-26T06:21:08.181Z,6.10
2019-03-26T06:24:32.054Z,6.00
2019-03-26T06:27:55.810Z,6.70
2019-03-26T06:31:19.672Z,10.30
2019-03-26T06:34:43.431Z,13.20
2019-03-26T06:38:07.207Z,14.20
2019-03-26T06:41:30.975Z,11.20
2019-03-26T06:44:55.081Z,9.30
2019-03-26T06:48:18.776Z,7.70
2019-03-26T06:51:42.878Z,6.70
2019-03-26T06:55:08.395Z,6.60
2019-03-26T06:58:32.460Z,6.60
2019-03-26T07:01:56.647Z,9.40
2019-03-26T07:05:20.781Z,13.10
2019-03-26T07:08:44.497Z,15.50
2019-03-26T07:12:08.214Z,15.80
2019-03-26T07:15:32.063Z,15.40
2019-03-26T07:18:56.196Z,15.40
2019-03-26T07:22:20.076Z,14.40
2019-03-26T07:25:43.895Z,12.80
2019-03-26T07:29:07.675Z,9.80
2019-03-26T07:32:31.376Z,9.30
2019-03-26T07:35:55.241Z,9.30
2019-03-26T07:39:19.092Z,8.70
2019-03-26T07:42:42.828Z,11.70
2019-03-26T07:46:08.868Z,12.10
2019-03-26T07:49:32.607Z,13.80
2019-03-26T07:52:56.318Z,14.80
2019-03-26T07:56:20.119Z,13.20
2019-03-26T07:59:43.925Z,13.10
2019-03-26T08:03:08.051Z,10.90
2019-03-26T08:06:31.926Z,10.20
2019-03-26T08:09:55.648Z,9.70
2019-03-26T08:13:19.520Z,9.30
2019-03-26T08:16:43.402Z,10.50
2019-03-26T08:20:08.603Z,13.00
2019-03-26T08:23:32.386Z,14.90
2019-03-26T08:26:56.368Z,14.70
2019-03-26T08:30:20.317Z,12.50
2019-03-26T08:33:44.024Z,11.90
2019-03-26T08:37:07.872Z,11.00
2019-03-26T08:40:31.752Z,12.70
2019-03-26T08:43:55.531Z,11.70
2019-03-26T08:47:19.397Z,11.70
2019-03-26T08:50:43.228Z,13.70
2019-03-26T08:54:07.134Z,14.10
2019-03-26T08:57:30.928Z,15.50
2019-03-26T09:00:54.754Z,14.10
2019-03-26T09:04:18.607Z,15.60
2019-03-26T09:07:42.379Z,17.70
2019-03-26T09:11:06.163Z,17.10
2019-03-26T09:14:29.818Z,15.60
2019-03-26T09:17:53.752Z,14.80
2019-03-26T09:21:17.493Z,12.40
2019-03-26T09:24:41.194Z,13.00
2019-03-26T09:28:06.891Z,12.50
2019-03-26T09:31:30.679Z,12.90
2019-03-26T09:34:54.569Z,12.10
2019-03-26T09:38:18.434Z,14.10
2019-03-26T09:41:42.192Z,14.20
2019-03-26T09:45:09.179Z,13.20
2019-03-26T09:48:32.952Z,13.60
2019-03-26T09:51:56.870Z,13.60
2019-03-26T09:55:20.544Z,12.40
2019-03-26T09:58:44.527Z,14.90
2019-03-26T10:02:08.379Z,16.10
2019-03-26T10:05:32.384Z,13.20
2019-03-26T10:08:56.251Z,11.30
2019-03-26T10:12:20.099Z,9.80
2019-03-26T10:15:45.511Z,9.60
2019-03-26T10:19:09.349Z,9.60
2019-03-26T10:22:33.436Z,11.10
2019-03-26T10:25:57.164Z,10.70
2019-03-26T10:29:30.108Z,9.70
2019-03-26T10:32:46.563Z,9.70
2019-03-26T10:36:10.347Z,10.70
2019-03-26T10:39:34.233Z,12.00
2019-03-26T10:42:58.167Z,12.20
2019-03-26T10:46:21.936Z,14.30
2019-03-26T10:49:45.728Z,15.00
2019-03-26T10:53:09.577Z,11.90
2019-03-26T10:56:33.379Z,10.70
2019-03-26T10:59:57.085Z,10.10
2019-03-26T11:03:20.887Z,12.60
2019-03-26T11:06:44.679Z,11.80
2019-03-26T11:10:09.554Z,11.80
2019-03-26T11:13:33.348Z,11.00
2019-03-26T11:16:57.127Z,11.90
2019-03-26T11:20:20.916Z,10.70
2019-03-26T11:23:44.826Z,9.60
2019-03-26T11:27:09.592Z,9.30
2019-03-26T11:30:33.508Z,9.80
2019-03-26T11:33:57.368Z,9.20
2019-03-26T11:37:21.129Z,9.40
2019-03-26T11:40:45.554Z,9.10
2019-03-26T11:44:09.296Z,9.10
2019-03-26T11:47:33.061Z,10.80
2019-03-26T11:50:56.997Z,10.30
2019-03-26T11:54:20.662Z,12.20
2019-03-26T11:57:44.554Z,11.20
2019-03-26T12:01:08.497Z,11.60
2019-03-26T12:04:32.257Z,10.60
2019-03-26T12:07:56.094Z,9.90
2019-03-26T12:11:19.847Z,9.50
2019-03-26T12:14:43.673Z,8.90
2019-03-26T12:18:07.607Z,8.40
2019-03-26T12:21:31.327Z,8.10
2019-03-26T12:24:55.264Z,7.90
2019-03-26T12:28:19.889Z,7.40
2019-03-26T12:31:43.782Z,7.30
2019-03-26T12:35:13.167Z,7.30
2019-03-26T12:38:37.331Z,7.60
2019-03-26T12:42:01.154Z,7.90
2019-03-26T12:45:24.946Z,8.50
2019-03-26T12:48:49.282Z,8.80
2019-03-26T12:52:13.010Z,8.50
2019-03-26T12:55:36.726Z,8.00
2019-03-26T12:59:00.597Z,7.70
2019-03-26T13:02:24.391Z,7.30
2019-03-26T13:05:48.199Z,8.10
2019-03-26T13:09:12.135Z,9.20
2019-03-26T13:12:35.908Z,8.70
2019-03-26T13:16:00.468Z,9.10
2019-03-26T13:19:24.459Z,9.10
2019-03-26T13:22:48.394Z,9.10
2019-03-26T13:26:14.679Z,9.10
2019-03-26T13:29:38.449Z,8.90
2019-03-26T13:33:02.338Z,8.80
2019-03-26T13:36:26.014Z,9.00
2019-03-26T13:39:49.880Z,9.40
2019-03-26T13:43:13.772Z,9.60
2019-03-26T13:46:37.743Z,9.40
2019-03-26T13:50:03.330Z,8.80
2019-03-26T13:53:29.139Z,8.30
2019-03-26T13:56:53.182Z,8.20
2019-03-26T14:00:19.866Z,8.00
2019-03-26T14:03:43.679Z,7.90
2019-03-26T14:07:07.450Z,7.60
2019-03-26T14:10:40.660Z,7.50
2019-03-26T14:13:56.964Z,7.00
2019-03-26T14:17:20.758Z,6.30
2019-03-26T14:20:44.714Z,6.40
2019-03-26T14:24:08.629Z,7.10
2019-03-26T14:27:32.403Z,6.90
2019-03-26T14:30:56.391Z,6.60
2019-03-26T14:34:20.487Z,6.30
2019-03-26T14:37:51.061Z,6.20
2019-03-26T14:41:09.898Z,6.50
2019-03-26T14:44:33.768Z,6.70
2019-03-26T14:47:57.586Z,6.50
2019-03-26T14:51:23.045Z,6.40
2019-03-26T14:54:55.209Z,6.10
2019-03-26T14:58:19.146Z,5.90
2019-03-26T15:01:43.875Z,6.00
2019-03-26T15:05:08.114Z,6.10
2019-03-26T15:08:40.699Z,6.10
2019-03-26T15:12:05.085Z,5.90
2019-03-26T15:15:29.388Z,5.80
2019-03-26T15:18:53.416Z,6.10
2019-03-26T15:22:17.258Z,6.00
2019-03-26T15:25:41.074Z,6.20
2019-03-26T15:29:04.987Z,6.20
2019-03-26T15:32:28.857Z,6.40
2019-03-26T15:35:53.701Z,6.00
2019-03-26T15:39:17.658Z,5.90
2019-03-26T15:42:41.552Z,5.90
2019-03-26T15:46:05.527Z,5.80
2019-03-26T15:49:29.994Z,5.80
2019-03-26T15:52:53.842Z,5.60
2019-03-26T15:56:17.692Z,5.40
2019-03-26T15:59:41.456Z,5.20
2019-03-26T16:03:05.553Z,5.20
2019-03-26T16:06:29.607Z,5.10
2019-03-26T16:09:53.421Z,5.10
2019-03-26T16:13:17.236Z,5.00
2019-03-26T16:16:41.178Z,4.90
2019-03-26T16:20:07.906Z,4.90
2019-03-26T16:23:31.684Z,4.80
2019-03-26T16:26:55.527Z,4.80
2019-03-26T16:30:20.190Z,4.80
2019-03-26T16:33:44.064Z,4.70
2019-03-26T16:37:07.894Z,4.70
2019-03-26T16:40:31.752Z,4.80
2019-03-26T16:43:55.682Z,4.70
2019-03-26T16:47:19.746Z,4.70
2019-03-26T16:50:43.563Z,4.60
2019-03-26T16:54:07.649Z,4.60
2019-03-26T16:57:31.528Z,4.60
2019-03-26T17:00:55.522Z,4.60
2019-03-26T17:04:20.208Z,4.50
2019-03-26T17:07:44.064Z,4.50
2019-03-26T17:11:08.791Z,4.50
2019-03-26T17:14:32.676Z,4.50
2019-03-26T17:17:56.439Z,4.40
2019-03-26T17:21:20.305Z,4.30
2019-03-26T17:24:44.208Z,4.30
2019-03-26T17:28:08.204Z,4.30
2019-03-26T17:31:32.391Z,4.20
2019-03-26T17:34:56.359Z,4.20
2019-03-26T17:38:20.179Z,4.10
2019-03-26T17:41:44.037Z,3.80
2019-03-26T17:45:17.835Z,3.10
2019-03-26T17:48:42.502Z,2.50
2019-03-26T17:52:06.341Z,2.10
2019-03-26T17:55:31.947Z,2.00
2019-03-26T17:58:55.781Z,1.90
2019-03-26T18:02:20.694Z,2.00
2019-03-26T18:05:44.674Z,1.90
2019-03-26T18:09:08.921Z,1.90
2019-03-26T18:12:32.833Z,1.80
2019-03-26T18:15:56.834Z,1.90
2019-03-26T18:19:20.723Z,1.80
2019-03-26T18:22:44.650Z,1.90
2019-03-26T18:26:08.587Z,1.90
2019-03-26T18:29:32.997Z,1.90
2019-03-26T18:32:56.858Z,1.90
2019-03-26T18:36:20.895Z,1.60
2019-03-26T18:39:45.599Z,1.40
2019-03-26T18:43:09.503Z,1.20
2019-03-26T18:46:33.613Z,1.20
2019-03-26T18:49:57.622Z,1.20
2019-03-26T18:53:23.970Z,1.20
2019-03-26T18:56:47.936Z,1.20
2019-03-26T19:00:14.369Z,1.20
2019-03-26T19:03:38.369Z,1.20
2019-03-26T19:07:02.181Z,1.20
2019-03-26T19:10:28.110Z,1.20
2019-03-26T19:13:52.012Z,1.20
2019-03-26T19:17:15.838Z,1.10
2019-03-26T19:20:39.734Z,1.10
2019-03-26T19:24:04.871Z,1.20
2019-03-26T19:27:29.007Z,1.20
2019-03-26T19:30:54.015Z,1.20
2019-03-26T19:34:17.863Z,1.20
2019-03-26T19:37:41.880Z,1.20
2019-03-26T19:41:05.642Z,1.20
2019-03-26T19:44:29.471Z,1.10
2019-03-26T19:47:53.483Z,1.10
2019-03-26T19:51:18.223Z,1.10
2019-03-26T19:54:41.985Z,1.10
2019-03-26T19:58:05.993Z,1.10
2019-03-26T20:01:30.031Z,1.10
2019-03-26T20:04:54.151Z,1.10
2019-03-26T20:08:18.068Z,1.10
2019-03-26T20:11:42.130Z,1.00
2019-03-26T20:15:08.897Z,0.90
2019-03-26T20:18:32.704Z,0.90
2019-03-26T20:21:56.784Z,0.80
2019-03-26T20:25:20.815Z,0.80
2019-03-26T20:28:44.713Z,0.80
2019-03-26T20:32:08.542Z,0.80
2019-03-26T20:35:32.330Z,0.80
2019-03-26T20:38:56.196Z,0.80
2019-03-26T20:42:20.099Z,0.80
2019-03-26T20:45:43.967Z,0.80
2019-03-26T20:49:07.767Z,0.70
2019-03-26T20:52:31.656Z,0.70
2019-03-26T20:55:55.494Z,0.60
2019-03-26T20:59:19.807Z,0.40
2019-03-26T21:02:44.212Z,0.40
2019-03-26T21:06:08.103Z,0.30
2019-03-26T21:09:32.451Z,0.20
2019-03-26T21:12:56.378Z,0.10
2019-03-26T21:16:21.353Z,0.10
2019-03-26T21:19:45.169Z,0.10
2019-03-26T21:23:09.103Z,0.00
2019-03-26T21:26:33.022Z,0.00
2019-03-26T21:30:09.726Z,-0.10
2019-03-26T21:33:22.358Z,-0.20
2019-03-26T21:36:46.266Z,-0.20
2019-03-26T21:40:11.164Z,-0.30
2019-03-26T21:43:35.191Z,-0.30
2019-03-26T21:46:58.946Z,-0.40
2019-03-26T21:50:22.954Z,-0.40
2019-03-26T21:53:46.824Z,-0.30
2019-03-26T21:57:10.611Z,-0.40
2019-03-26T22:00:34.563Z,-0.40
2019-03-26T22:03:58.478Z,-0.50
2019-03-26T22:07:22.363Z,-0.50
2019-03-26T22:10:46.338Z,-0.60
2019-03-26T22:14:17.811Z,-0.60
2019-03-26T22:17:36.052Z,-0.60
2019-03-26T22:21:00.027Z,-0.60
2019-03-26T22:24:23.843Z,-0.60
2019-03-26T22:27:47.680Z,-0.60
2019-03-26T22:31:11.495Z,-0.60
2019-03-26T22:34:36.024Z,-0.60
2019-03-26T22:37:59.859Z,-0.70
2019-03-26T22:41:23.681Z,-0.70
2019-03-26T22:44:47.473Z,-0.70
2019-03-26T22:48:11.413Z,-0.80
2019-03-26T22:51:35.224Z,-0.80
2019-03-26T22:54:59.143Z,-0.90
2019-03-26T22:58:23.016Z,-0.90
2019-03-26T23:01:47.709Z,-0.90
2019-03-26T23:05:12.080Z,-0.90
2019-03-26T23:08:35.945Z,-0.90
2019-03-26T23:11:59.874Z,-1.00
2019-03-26T23:15:26.003Z,-1.00
2019-03-26T23:18:49.999Z,-1.00
2019-03-26T23:22:13.811Z,-1.10
2019-03-26T23:25:37.726Z,-1.10
2019-03-26T23:29:01.475Z,-1.10
2019-03-26T23:32:25.285Z,-1.20
2019-03-26T23:35:49.055Z,-1.10
2019-03-26T23:39:12.841Z,-1.10
2019-03-26T23:42:36.668Z,-1.20
2019-03-26T23:46:00.653Z,-1.20
2019-03-26T23:49:24.429Z,-1.30
2019-03-26T23:52:48.563Z,-1.40
2019-03-26T23:56:12.530Z,-1.40
2019-03-26T23:59:36.523Z,-1.40
